sensor_id;sensor_type;location;lat;lon;timestamp;pressure;altitude;pressure_sealevel;temperature;humidity
33454;BME280;39400;49.744;7.012;2023-05-01T00:00:21;95955.72;;;9.68;92.55
33454;BME280;39400;49.744;7.012;2023-05-01T00:02:51;95949.44;;;9.60;92.72
33454;BME280;39400;49.744;7.012;2023-05-01T00:05:16;95950.97;;;9.58;92.61
33454;BME280;39400;49.744;7.012;2023-05-01T00:07:42;95943.13;;;9.56;92.70
33454;BME280;39400;49.744;7.012;2023-05-01T00:10:07;95940.41;;;9.63;92.20
33454;BME280;39400;49.744;7.012;2023-05-01T00:12:32;95934.53;;;9.65;92.81
33454;BME280;39400;49.744;7.012;2023-05-01T00:14:58;95939.25;;;9.68;92.81
33454;BME280;39400;49.744;7.012;2023-05-01T00:17:23;95928.25;;;9.68;92.34
33454;BME280;39400;49.744;7.012;2023-05-01T00:19:52;95925.84;;;9.56;92.95
33454;BME280;39400;49.744;7.012;2023-05-01T00:22:17;95932.16;;;9.52;93.14
33454;BME280;39400;49.744;7.012;2023-05-01T00:24:43;95930.19;;;9.49;93.46
33454;BME280;39400;49.744;7.012;2023-05-01T00:27:08;95924.25;;;9.40;93.61
33454;BME280;39400;49.744;7.012;2023-05-01T00:29:33;95921.91;;;9.42;94.19
33454;BME280;39400;49.744;7.012;2023-05-01T00:31:59;95928.19;;;9.43;94.08
33454;BME280;39400;49.744;7.012;2023-05-01T00:34:24;95915.56;;;9.27;94.73
33454;BME280;39400;49.744;7.012;2023-05-01T00:36:49;95910.88;;;9.28;94.84
33454;BME280;39400;49.744;7.012;2023-05-01T00:39:15;95908.44;;;9.09;95.24
33454;BME280;39400;49.744;7.012;2023-05-01T00:41:40;95906.88;;;9.08;95.57
33454;BME280;39400;49.744;7.012;2023-05-01T00:44:05;95905.31;;;9.14;94.80
33454;BME280;39400;49.744;7.012;2023-05-01T00:46:32;95903.78;;;9.16;94.40
33454;BME280;39400;49.744;7.012;2023-05-01T00:48:58;95900.69;;;9.21;94.69
33454;BME280;39400;49.744;7.012;2023-05-01T00:51:25;95904.97;;;9.19;94.54
33454;BME280;39400;49.744;7.012;2023-05-01T00:53:52;95896.69;;;9.08;95.77
33454;BME280;39400;49.744;7.012;2023-05-01T00:56:18;95896.22;;;8.95;96.12
33454;BME280;39400;49.744;7.012;2023-05-01T00:58:45;95888.03;;;8.99;96.36
33454;BME280;39400;49.744;7.012;2023-05-01T01:01:14;95890.38;;;9.00;96.30
33454;BME280;39400;49.744;7.012;2023-05-01T01:03:40;95879.38;;;8.97;97.10
33454;BME280;39400;49.744;7.012;2023-05-01T01:06:17;95882.56;;;9.02;96.90
33454;BME280;39400;49.744;7.012;2023-05-01T01:08:59;95872.78;;;9.09;96.86
33454;BME280;39400;49.744;7.012;2023-05-01T01:22:05;95863.28;;;8.81;97.65
33454;BME280;39400;49.744;7.012;2023-05-01T01:27:38;95865.19;;;8.70;99.45
33454;BME280;39400;49.744;7.012;2023-05-01T01:35:25;95865.19;;;8.70;98.68
33454;BME280;39400;49.744;7.012;2023-05-01T01:37:56;95869.44;;;8.64;98.67
33454;BME280;39400;49.744;7.012;2023-05-01T01:40:32;95863.53;;;8.62;98.76
33454;BME280;39400;49.744;7.012;2023-05-01T01:43:03;95859.25;;;8.61;98.85
33454;BME280;39400;49.744;7.012;2023-05-01T01:45:42;95859.59;;;8.55;99.08
33454;BME280;39400;49.744;7.012;2023-05-01T01:48:13;95863.09;;;8.49;99.57
33454;BME280;39400;49.744;7.012;2023-05-01T01:50:41;95859.16;;;8.46;100.00
33454;BME280;39400;49.744;7.012;2023-05-01T01:53:10;95854.91;;;8.56;99.75
33454;BME280;39400;49.744;7.012;2023-05-01T01:55:39;95849.47;;;8.60;99.14
33454;BME280;39400;49.744;7.012;2023-05-01T01:58:07;95849.50;;;8.67;99.11
33454;BME280;39400;49.744;7.012;2023-05-01T02:00:34;95854.22;;;8.73;98.18
33454;BME280;39400;49.744;7.012;2023-05-01T02:03:01;95850.28;;;8.71;98.62
33454;BME280;39400;49.744;7.012;2023-05-01T02:05:27;95842.06;;;8.71;98.63
33454;BME280;39400;49.744;7.012;2023-05-01T02:07:53;95847.16;;;8.76;98.21
33454;BME280;39400;49.744;7.012;2023-05-01T02:10:21;95844.84;;;8.78;98.19
33454;BME280;39400;49.744;7.012;2023-05-01T02:12:48;95837.78;;;8.73;98.10
33454;BME280;39400;49.744;7.012;2023-05-01T02:15:16;95842.06;;;8.67;98.75
33454;BME280;39400;49.744;7.012;2023-05-01T02:17:42;95840.09;;;8.68;98.72
33454;BME280;39400;49.744;7.012;2023-05-01T02:20:10;95832.28;;;8.70;98.19
33454;BME280;39400;49.744;7.012;2023-05-01T02:22:37;95840.09;;;8.68;98.47
33454;BME280;39400;49.744;7.012;2023-05-01T02:25:04;95836.91;;;8.62;98.73
33454;BME280;39400;49.744;7.012;2023-05-01T02:27:35;95834.56;;;8.61;98.55
33454;BME280;39400;49.744;7.012;2023-05-01T02:30:02;95837.75;;;8.70;98.26
33454;BME280;39400;49.744;7.012;2023-05-01T02:32:27;95836.59;;;8.71;97.74
33454;BME280;39400;49.744;7.012;2023-05-01T02:34:54;95838.56;;;8.74;97.59
33454;BME280;39400;49.744;7.012;2023-05-01T02:37:19;95825.22;;;8.72;97.78
33454;BME280;39400;49.744;7.012;2023-05-01T02:39:45;95825.25;;;8.76;98.16
33454;BME280;39400;49.744;7.012;2023-05-01T02:42:12;95820.59;;;8.80;98.71
33454;BME280;39400;49.744;7.012;2023-05-01T02:44:47;95818.22;;;8.82;98.68
33454;BME280;39400;49.744;7.012;2023-05-01T02:47:19;95818.25;;;8.89;98.19
33454;BME280;39400;49.744;7.012;2023-05-01T02:49:44;95804.13;;;8.80;99.22
33454;BME280;39400;49.744;7.012;2023-05-01T02:52:10;95802.56;;;8.90;98.50
33454;BME280;39400;49.744;7.012;2023-05-01T02:54:36;95803.38;;;8.90;98.25
33454;BME280;39400;49.744;7.012;2023-05-01T02:57:05;95793.22;;;8.94;98.00
33454;BME280;39400;49.744;7.012;2023-05-01T02:59:31;95793.22;;;8.94;97.65
33454;BME280;39400;49.744;7.012;2023-05-01T03:01:56;95799.50;;;8.98;97.68
33454;BME280;39400;49.744;7.012;2023-05-01T03:04:21;95794.38;;;9.00;97.61
33454;BME280;39400;49.744;7.012;2023-05-01T03:06:47;95790.84;;;8.96;97.89
33454;BME280;39400;49.744;7.012;2023-05-01T03:09:12;95790.47;;;8.98;97.51
33454;BME280;39400;49.744;7.012;2023-05-01T03:11:37;95784.63;;;9.14;95.93
33454;BME280;39400;49.744;7.012;2023-05-01T03:14:03;95788.56;;;9.16;95.09
33454;BME280;39400;49.744;7.012;2023-05-01T03:16:28;95782.28;;;9.09;94.99
33454;BME280;39400;49.744;7.012;2023-05-01T03:18:53;95780.69;;;9.00;95.05
33454;BME280;39400;49.744;7.012;2023-05-01T03:21:19;95784.28;;;9.22;94.23
33454;BME280;39400;49.744;7.012;2023-05-01T03:23:44;95778.78;;;9.19;93.95
33454;BME280;39400;49.744;7.012;2023-05-01T03:26:09;95774.50;;;9.43;92.05
33454;BME280;39400;49.744;7.012;2023-05-01T03:28:35;95778.03;;;9.43;92.12
33454;BME280;39400;49.744;7.012;2023-05-01T03:31:01;95766.28;;;9.32;92.13
33454;BME280;39400;49.744;7.012;2023-05-01T03:33:29;95768.63;;;9.44;91.97
33454;BME280;39400;49.744;7.012;2023-05-01T03:36:02;95769.81;;;9.36;94.29
33454;BME280;39400;49.744;7.012;2023-05-01T03:38:28;95767.41;;;9.27;92.49
33454;BME280;39400;49.744;7.012;2023-05-01T03:41:09;95768.19;;;9.14;94.48
33454;BME280;39400;49.744;7.012;2023-05-01T03:44:04;95766.59;;;9.09;94.30
33454;BME280;39400;49.744;7.012;2023-05-01T03:46:38;95762.34;;;9.22;93.10
33454;BME280;39400;49.744;7.012;2023-05-01T03:49:05;95765.09;;;9.37;92.07
33454;BME280;39400;49.744;7.012;2023-05-01T03:51:36;95768.25;;;9.53;91.34
33454;BME280;39400;49.744;7.012;2023-05-01T03:54:02;95759.63;;;9.62;90.62
33454;BME280;39400;49.744;7.012;2023-05-01T03:56:34;95758.06;;;9.68;90.29
33454;BME280;39400;49.744;7.012;2023-05-01T03:59:00;95759.63;;;9.69;89.84
33454;BME280;39400;49.744;7.012;2023-05-01T04:01:25;95761.16;;;9.66;89.91
33454;BME280;39400;49.744;7.012;2023-05-01T04:03:51;95756.47;;;9.49;90.81
33454;BME280;39400;49.744;7.012;2023-05-01T04:06:16;95761.56;;;9.33;91.73
33454;BME280;39400;49.744;7.012;2023-05-01T04:08:42;95756.44;;;9.24;92.36
33454;BME280;39400;49.744;7.012;2023-05-01T04:11:07;95752.13;;;9.19;92.54
33454;BME280;39400;49.744;7.012;2023-05-01T04:13:32;95754.09;;;9.19;92.35
33454;BME280;39400;49.744;7.012;2023-05-01T04:15:58;95747.84;;;9.22;91.82
33454;BME280;39400;49.744;7.012;2023-05-01T04:18:25;95756.84;;;9.26;92.45
33454;BME280;39400;49.744;7.012;2023-05-01T04:20:54;95749.41;;;9.30;91.47
33454;BME280;39400;49.744;7.012;2023-05-01T04:23:19;95750.56;;;9.22;92.51
33454;BME280;39400;49.744;7.012;2023-05-01T04:25:45;95752.53;;;9.25;92.52
33454;BME280;39400;49.744;7.012;2023-05-01T04:28:14;95754.88;;;9.26;92.38
33454;BME280;39400;49.744;7.012;2023-05-01T04:30:39;95758.81;;;9.25;92.39
33454;BME280;39400;49.744;7.012;2023-05-01T04:33:05;95756.44;;;9.31;91.73
33454;BME280;39400;49.744;7.012;2023-05-01T04:35:30;95758.41;;;9.31;91.63
33454;BME280;39400;49.744;7.012;2023-05-01T04:37:56;95768.25;;;9.39;91.96
33454;BME280;39400;49.744;7.012;2023-05-01T04:40:21;95761.97;;;9.60;90.50
33454;BME280;39400;49.744;7.012;2023-05-01T04:42:46;95763.13;;;9.73;89.94
33454;BME280;39400;49.744;7.012;2023-05-01T04:45:13;95760.00;;;9.89;89.27
33454;BME280;39400;49.744;7.012;2023-05-01T04:47:39;95761.97;;;9.95;88.84
33454;BME280;39400;49.744;7.012;2023-05-01T04:50:05;95763.16;;;9.94;88.57
33454;BME280;39400;49.744;7.012;2023-05-01T04:52:30;95765.88;;;10.02;88.71
33454;BME280;39400;49.744;7.012;2023-05-01T04:54:58;95768.22;;;9.99;88.19
33454;BME280;39400;49.744;7.012;2023-05-01T04:57:26;95770.59;;;9.87;89.72
33454;BME280;39400;49.744;7.012;2023-05-01T04:59:52;95770.59;;;9.80;90.63
33454;BME280;39400;49.744;7.012;2023-05-01T05:02:17;95776.06;;;9.90;90.02
33454;BME280;39400;49.744;7.012;2023-05-01T05:04:42;95776.88;;;9.94;88.77
33454;BME280;39400;49.744;7.012;2023-05-01T05:07:08;95774.53;;;9.82;90.97
33454;BME280;39400;49.744;7.012;2023-05-01T05:10:05;95764.72;;;9.85;91.42
33454;BME280;39400;49.744;7.012;2023-05-01T05:12:32;95767.84;;;9.83;92.08
33454;BME280;39400;49.744;7.012;2023-05-01T05:14:57;95769.03;;;9.86;92.93
33454;BME280;39400;49.744;7.012;2023-05-01T05:17:23;95771.00;;;9.82;93.02
33454;BME280;39400;49.744;7.012;2023-05-01T05:19:48;95777.66;;;9.84;93.08
33454;BME280;39400;49.744;7.012;2023-05-01T05:22:13;95770.59;;;9.90;92.63
33454;BME280;39400;49.744;7.012;2023-05-01T05:24:59;95770.59;;;9.90;92.83
33454;BME280;39400;49.744;7.012;2023-05-01T05:27:24;95772.16;;;10.02;91.89
33454;BME280;39400;49.744;7.012;2023-05-01T05:29:49;95774.50;;;10.04;91.04
33454;BME280;39400;49.744;7.012;2023-05-01T05:32:15;95770.97;;;10.10;90.88
33454;BME280;39400;49.744;7.012;2023-05-01T05:34:40;95767.44;;;10.10;90.76
33454;BME280;39400;49.744;7.012;2023-05-01T05:37:06;95774.50;;;10.04;90.66
33454;BME280;39400;49.744;7.012;2023-05-01T05:39:36;95770.19;;;9.99;91.16
33454;BME280;39400;49.744;7.012;2023-05-01T05:42:01;95774.91;;;9.98;91.36
33454;BME280;39400;49.744;7.012;2023-05-01T05:44:27;95774.50;;;10.04;91.49
33454;BME280;39400;49.744;7.012;2023-05-01T05:46:52;95771.75;;;10.04;91.61
33454;BME280;39400;49.744;7.012;2023-05-01T05:49:26;95767.41;;;10.17;90.41
33454;BME280;39400;49.744;7.012;2023-05-01T05:51:51;95761.13;;;10.23;90.75
33454;BME280;39400;49.744;7.012;2023-05-01T05:54:17;95768.19;;;10.32;90.42
33454;BME280;39400;49.744;7.012;2023-05-01T05:56:43;95765.81;;;10.44;89.42
33454;BME280;39400;49.744;7.012;2023-05-01T05:59:09;95761.44;;;10.65;88.81
33454;BME280;39400;49.744;7.012;2023-05-01T06:01:34;95767.31;;;10.74;88.07
33454;BME280;39400;49.744;7.012;2023-05-01T06:04:00;95774.31;;;10.82;88.48
33454;BME280;39400;49.744;7.012;2023-05-01T06:06:26;95766.47;;;10.84;89.19
33454;BME280;39400;49.744;7.012;2023-05-01T06:08:52;95755.47;;;10.84;88.69
33454;BME280;39400;49.744;7.012;2023-05-01T06:11:18;95762.53;;;10.82;89.53
33454;BME280;39400;49.744;7.012;2023-05-01T06:13:43;95756.94;;;11.03;88.51
33454;BME280;39400;49.744;7.012;2023-05-01T06:16:08;95746.59;;;11.22;89.76
33454;BME280;39400;49.744;7.012;2023-05-01T06:18:34;95742.81;;;11.60;86.62
33454;BME280;39400;49.744;7.012;2023-05-01T06:21:00;95753.28;;;11.76;86.20
33454;BME280;39400;49.744;7.012;2023-05-01T06:23:25;95749.41;;;11.70;86.75
33454;BME280;39400;49.744;7.012;2023-05-01T06:26:16;95747.72;;;11.83;86.28
33454;BME280;39400;49.744;7.012;2023-05-01T06:28:42;95741.47;;;11.79;86.86
33454;BME280;39400;49.744;7.012;2023-05-01T06:31:07;95751.97;;;11.99;85.37
33454;BME280;39400;49.744;7.012;2023-05-01T06:33:37;95744.44;;;12.03;85.71
33454;BME280;39400;49.744;7.012;2023-05-01T06:36:15;95744.44;;;12.03;86.76
33454;BME280;39400;49.744;7.012;2023-05-01T06:38:40;95741.78;;;12.33;85.05
33454;BME280;39400;49.744;7.012;2023-05-01T06:41:06;95734.03;;;12.21;84.24
33454;BME280;39400;49.744;7.012;2023-05-01T06:43:31;95736.09;;;12.48;84.26
33454;BME280;39400;49.744;7.012;2023-05-01T06:45:56;95736.19;;;12.41;85.05
33454;BME280;39400;49.744;7.012;2023-05-01T06:48:22;95736.50;;;12.46;84.33
33454;BME280;39400;49.744;7.012;2023-05-01T06:50:47;95736.84;;;12.52;84.73
33454;BME280;39400;49.744;7.012;2023-05-01T06:53:13;95734.81;;;12.56;85.11
33454;BME280;39400;49.744;7.012;2023-05-01T06:55:38;95739.19;;;12.53;83.77
33454;BME280;39400;49.744;7.012;2023-05-01T06:58:04;95741.53;;;12.55;84.72
33454;BME280;39400;49.744;7.012;2023-05-01T07:00:29;95738.06;;;12.81;82.31
33454;BME280;39400;49.744;7.012;2023-05-01T07:02:54;95744.47;;;12.75;81.51
33454;BME280;39400;49.744;7.012;2023-05-01T07:05:20;95747.66;;;12.70;80.20
33454;BME280;39400;49.744;7.012;2023-05-01T07:07:45;95746.81;;;12.76;81.02
33454;BME280;39400;49.744;7.012;2023-05-01T07:10:10;95750.75;;;12.75;80.30
33454;BME280;39400;49.744;7.012;2023-05-01T07:12:36;95746.88;;;12.69;80.92
33454;BME280;39400;49.744;7.012;2023-05-01T07:15:01;95746.66;;;12.87;80.96
33454;BME280;39400;49.744;7.012;2023-05-01T07:17:28;95749.38;;;13.21;79.77
33454;BME280;39400;49.744;7.012;2023-05-01T07:19:53;95752.13;;;13.52;78.96
33454;BME280;39400;49.744;7.012;2023-05-01T07:22:18;95753.56;;;13.60;78.35
33454;BME280;39400;49.744;7.012;2023-05-01T07:24:44;95754.28;;;13.64;78.70
33454;BME280;39400;49.744;7.012;2023-05-01T07:27:09;95758.09;;;13.74;78.77
33454;BME280;39400;49.744;7.012;2023-05-01T07:29:37;95756.69;;;13.62;78.33
33454;BME280;39400;49.744;7.012;2023-05-01T07:32:02;95750.75;;;13.64;77.08
33454;BME280;39400;49.744;7.012;2023-05-01T07:34:28;95755.13;;;13.61;77.45
33454;BME280;39400;49.744;7.012;2023-05-01T07:36:53;95753.22;;;13.58;76.16
33454;BME280;39400;49.744;7.012;2023-05-01T07:39:18;95755.22;;;13.54;77.17
33454;BME280;39400;49.744;7.012;2023-05-01T07:41:43;95746.97;;;13.77;78.12
33454;BME280;39400;49.744;7.012;2023-05-01T07:44:09;95745.31;;;13.84;76.95
33454;BME280;39400;49.744;7.012;2023-05-01T07:46:34;95747.22;;;13.87;77.09
33454;BME280;39400;49.744;7.012;2023-05-01T07:48:59;95753.09;;;13.89;76.93
33454;BME280;39400;49.744;7.012;2023-05-01T07:51:25;95757.00;;;13.91;76.46
33454;BME280;39400;49.744;7.012;2023-05-01T07:53:50;95744.69;;;14.19;75.70
33454;BME280;39400;49.744;7.012;2023-05-01T07:56:15;95744.94;;;14.05;74.56
33454;BME280;39400;49.744;7.012;2023-05-01T07:58:41;95745.50;;;13.96;77.01
33454;BME280;39400;49.744;7.012;2023-05-01T08:01:06;95752.03;;;14.06;77.27
33454;BME280;39400;49.744;7.012;2023-05-01T08:03:31;95752.63;;;14.17;78.10
33454;BME280;39400;49.744;7.012;2023-05-01T08:05:57;95747.94;;;14.14;76.09
33454;BME280;39400;49.744;7.012;2023-05-01T08:08:23;95750.22;;;14.19;76.55
33454;BME280;39400;49.744;7.012;2023-05-01T08:10:49;95750.31;;;14.36;77.95
33454;BME280;39400;49.744;7.012;2023-05-01T08:13:15;95752.47;;;14.48;74.56
33454;BME280;39400;49.744;7.012;2023-05-01T08:15:41;95753.78;;;14.63;71.04
33454;BME280;39400;49.744;7.012;2023-05-01T08:18:09;95753.03;;;14.83;71.40
33454;BME280;39400;49.744;7.012;2023-05-01T08:20:35;95755.50;;;14.97;70.85
33454;BME280;39400;49.744;7.012;2023-05-01T08:23:00;95741.81;;;14.90;69.71
33454;BME280;39400;49.744;7.012;2023-05-01T08:25:25;95752.22;;;15.02;69.75
33454;BME280;39400;49.744;7.012;2023-05-01T08:27:51;95745.06;;;14.85;69.88
33454;BME280;39400;49.744;7.012;2023-05-01T08:30:16;95755.94;;;14.76;70.17
33454;BME280;39400;49.744;7.012;2023-05-01T08:32:41;95746.56;;;14.69;71.12
33454;BME280;39400;49.744;7.012;2023-05-01T08:35:07;95749.88;;;14.81;71.13
33454;BME280;39400;49.744;7.012;2023-05-01T08:37:32;95748.75;;;14.98;71.84
33454;BME280;39400;49.744;7.012;2023-05-01T08:39:58;95749.13;;;15.16;72.51
33454;BME280;39400;49.744;7.012;2023-05-01T08:42:23;95746.78;;;15.35;68.98
33454;BME280;39400;49.744;7.012;2023-05-01T08:44:49;95741.41;;;15.44;69.39
33454;BME280;39400;49.744;7.012;2023-05-01T08:47:17;95740.91;;;15.49;67.56
33454;BME280;39400;49.744;7.012;2023-05-01T08:49:43;95740.31;;;15.58;67.92
33454;BME280;39400;49.744;7.012;2023-05-01T08:52:10;95737.38;;;15.49;67.51
33454;BME280;39400;49.744;7.012;2023-05-01T08:54:38;95743.69;;;15.49;65.64
33454;BME280;39400;49.744;7.012;2023-05-01T08:57:08;95734.75;;;15.58;64.47
33454;BME280;39400;49.744;7.012;2023-05-01T08:59:34;95739.84;;;15.43;64.42
33454;BME280;39400;49.744;7.012;2023-05-01T09:02:01;95744.97;;;15.61;64.65
33454;BME280;39400;49.744;7.012;2023-05-01T09:04:31;95737.97;;;15.56;62.08
33454;BME280;39400;49.744;7.012;2023-05-01T09:06:58;95743.53;;;15.56;62.07
33454;BME280;39400;49.744;7.012;2023-05-01T09:09:23;95747.22;;;15.50;62.28
33454;BME280;39400;49.744;7.012;2023-05-01T09:11:48;95744.22;;;15.60;62.98
33454;BME280;39400;49.744;7.012;2023-05-01T09:14:14;95740.53;;;15.83;61.27
33454;BME280;39400;49.744;7.012;2023-05-01T09:16:39;95746.69;;;16.07;62.12
33454;BME280;39400;49.744;7.012;2023-05-01T09:19:05;95743.38;;;15.96;63.02
33454;BME280;39400;49.744;7.012;2023-05-01T09:21:30;95740.19;;;15.98;65.33
33454;BME280;39400;49.744;7.012;2023-05-01T09:23:55;95738.19;;;15.98;64.11
33454;BME280;39400;49.744;7.012;2023-05-01T09:26:20;95733.13;;;16.09;63.02
33454;BME280;39400;49.744;7.012;2023-05-01T09:28:47;95729.31;;;16.20;61.83
33454;BME280;39400;49.744;7.012;2023-05-01T09:31:23;95733.00;;;15.84;61.15
33454;BME280;39400;49.744;7.012;2023-05-01T09:33:53;95740.97;;;15.98;60.94
33454;BME280;39400;49.744;7.012;2023-05-01T09:36:19;95738.88;;;15.86;62.99
33454;BME280;39400;49.744;7.012;2023-05-01T09:38:45;95738.03;;;15.73;65.73
33454;BME280;39400;49.744;7.012;2023-05-01T09:41:10;95737.81;;;15.63;64.74
33454;BME280;39400;49.744;7.012;2023-05-01T09:43:35;95735.69;;;15.51;63.82
33454;BME280;39400;49.744;7.012;2023-05-01T09:46:08;95738.63;;;15.44;64.32
33454;BME280;39400;49.744;7.012;2023-05-01T09:48:34;95732.75;;;15.42;66.14
33454;BME280;39400;49.744;7.012;2023-05-01T09:51:00;95735.53;;;15.42;66.73
33454;BME280;39400;49.744;7.012;2023-05-01T09:53:39;95739.69;;;15.50;67.54
33454;BME280;39400;49.744;7.012;2023-05-01T09:56:04;95738.22;;;15.45;68.97
33454;BME280;39400;49.744;7.012;2023-05-01T09:58:30;95739.84;;;15.43;68.74
33454;BME280;39400;49.744;7.012;2023-05-01T10:00:55;95742.09;;;15.48;68.42
33454;BME280;39400;49.744;7.012;2023-05-01T10:03:21;95741.25;;;15.51;68.13
33454;BME280;39400;49.744;7.012;2023-05-01T10:05:46;95744.22;;;15.60;71.64
33454;BME280;39400;49.744;7.012;2023-05-01T10:08:11;95746.44;;;15.65;73.04
33454;BME280;39400;49.744;7.012;2023-05-01T10:10:37;95737.81;;;15.63;72.85
33454;BME280;39400;49.744;7.012;2023-05-01T10:13:17;95749.28;;;15.82;73.05
33454;BME280;39400;49.744;7.012;2023-05-01T10:15:43;95745.81;;;15.78;72.63
33454;BME280;39400;49.744;7.012;2023-05-01T10:18:09;95750.22;;;15.91;72.87
33454;BME280;39400;49.744;7.012;2023-05-01T10:20:35;95746.78;;;15.87;72.69
33454;BME280;39400;49.744;7.012;2023-05-01T10:23:03;95748.00;;;15.86;71.29
33454;BME280;39400;49.744;7.012;2023-05-01T10:25:30;95750.59;;;15.93;71.22
33454;BME280;39400;49.744;7.012;2023-05-01T10:27:55;95752.56;;;15.77;70.29
33454;BME280;39400;49.744;7.012;2023-05-01T10:30:21;95755.78;;;15.91;70.44
33454;BME280;39400;49.744;7.012;2023-05-01T10:32:47;95755.19;;;15.84;71.01
33454;BME280;39400;49.744;7.012;2023-05-01T10:35:26;95754.28;;;16.03;69.23
33454;BME280;39400;49.744;7.012;2023-05-01T10:38:01;95756.72;;;16.01;70.77
33454;BME280;39400;49.744;7.012;2023-05-01T10:45:47;95752.91;;;16.11;67.15
33454;BME280;39400;49.744;7.012;2023-05-01T10:51:20;95745.59;;;16.34;65.71
33454;BME280;39400;49.744;7.012;2023-05-01T10:53:46;95743.66;;;16.47;62.25
33454;BME280;39400;49.744;7.012;2023-05-01T11:03:56;95737.16;;;16.83;62.64
33454;BME280;39400;49.744;7.012;2023-05-01T11:06:22;95732.63;;;16.89;61.32
33454;BME280;39400;49.744;7.012;2023-05-01T11:08:48;95731.59;;;16.83;61.96
33454;BME280;39400;49.744;7.012;2023-05-01T11:13:57;95733.59;;;16.82;60.84
33454;BME280;39400;49.744;7.012;2023-05-01T11:21:49;95732.78;;;17.24;59.43
33454;BME280;39400;49.744;7.012;2023-05-01T11:24:15;95730.78;;;17.11;59.08
33454;BME280;39400;49.744;7.012;2023-05-01T11:26:41;95730.78;;;17.11;60.33
33454;BME280;39400;49.744;7.012;2023-05-01T11:29:07;95732.53;;;17.05;59.65
33454;BME280;39400;49.744;7.012;2023-05-01T11:31:33;95732.00;;;17.10;58.23
33454;BME280;39400;49.744;7.012;2023-05-01T11:33:59;95730.47;;;17.35;62.09
33454;BME280;39400;49.744;7.012;2023-05-01T11:36:25;95729.25;;;17.62;60.31
33454;BME280;39400;49.744;7.012;2023-05-01T11:38:54;95735.59;;;17.49;59.17
33454;BME280;39400;49.744;7.012;2023-05-01T11:41:20;95734.66;;;17.14;61.71
33454;BME280;39400;49.744;7.012;2023-05-01T11:44:03;95726.34;;;17.27;64.93
33454;BME280;39400;49.744;7.012;2023-05-01T11:46:30;95731.91;;;17.27;63.05
33454;BME280;39400;49.744;7.012;2023-05-01T11:49:00;95737.50;;;16.69;63.17
33454;BME280;39400;49.744;7.012;2023-05-01T11:51:27;95742.00;;;16.04;63.45
33454;BME280;39400;49.744;7.012;2023-05-01T11:54:03;95739.59;;;15.90;65.27
33454;BME280;39400;49.744;7.012;2023-05-01T11:56:30;95739.59;;;15.90;65.20
33454;BME280;39400;49.744;7.012;2023-05-01T11:58:56;95740.78;;;16.05;64.57
33454;BME280;39400;49.744;7.012;2023-05-01T12:01:35;95739.03;;;15.79;63.98
33454;BME280;39400;49.744;7.012;2023-05-01T12:04:02;95741.91;;;15.75;63.93
33454;BME280;39400;49.744;7.012;2023-05-01T12:06:37;95738.34;;;15.75;64.97
33454;BME280;39400;49.744;7.012;2023-05-01T12:09:03;95738.00;;;15.89;64.12
33454;BME280;39400;49.744;7.012;2023-05-01T12:11:29;95738.50;;;16.00;64.57
33454;BME280;39400;49.744;7.012;2023-05-01T12:13:54;95736.69;;;16.10;65.51
33454;BME280;39400;49.744;7.012;2023-05-01T12:16:19;95744.78;;;16.04;62.67
33454;BME280;39400;49.744;7.012;2023-05-01T12:18:45;95723.34;;;16.05;63.78
33454;BME280;39400;49.744;7.012;2023-05-01T12:21:14;95730.41;;;16.38;63.81
33454;BME280;39400;49.744;7.012;2023-05-01T12:23:40;95722.72;;;16.59;61.20
33454;BME280;39400;49.744;7.012;2023-05-01T12:26:16;95731.38;;;16.61;61.54
33454;BME280;39400;49.744;7.012;2023-05-01T12:28:58;95719.50;;;16.60;60.39
33454;BME280;39400;49.744;7.012;2023-05-01T12:31:24;95721.53;;;16.73;61.28
33454;BME280;39400;49.744;7.012;2023-05-01T12:33:57;95723.19;;;16.99;61.09
33454;BME280;39400;49.744;7.012;2023-05-01T12:36:23;95721.00;;;17.20;61.76
33454;BME280;39400;49.744;7.012;2023-05-01T12:39:09;95724.34;;;17.66;67.16
33454;BME280;39400;49.744;7.012;2023-05-01T12:41:40;95721.28;;;18.24;65.36
33454;BME280;39400;49.744;7.012;2023-05-01T12:44:22;95715.06;;;18.54;65.33
33454;BME280;39400;49.744;7.012;2023-05-01T12:47:07;95718.88;;;18.70;56.59
33454;BME280;39400;49.744;7.012;2023-05-01T12:49:36;95716.06;;;18.26;56.50
33454;BME280;39400;49.744;7.012;2023-05-01T12:52:03;95720.91;;;17.87;58.72
33454;BME280;39400;49.744;7.012;2023-05-01T12:54:30;95716.00;;;17.66;58.40
33454;BME280;39400;49.744;7.012;2023-05-01T12:57:10;95716.25;;;17.58;58.10
33454;BME280;39400;49.744;7.012;2023-05-01T12:59:37;95713.72;;;17.77;59.22
33454;BME280;39400;49.744;7.012;2023-05-01T13:02:04;95711.69;;;17.65;57.05
33454;BME280;39400;49.744;7.012;2023-05-01T13:04:30;95716.69;;;17.82;58.57
33454;BME280;39400;49.744;7.012;2023-05-01T13:06:57;95710.56;;;17.75;57.17
33454;BME280;39400;49.744;7.012;2023-05-01T13:09:23;95711.91;;;17.83;56.52
33454;BME280;39400;49.744;7.012;2023-05-01T13:12:18;95708.22;;;17.86;57.15
33454;BME280;39400;49.744;7.012;2023-05-01T13:14:44;95714.91;;;17.89;56.83
33454;BME280;39400;49.744;7.012;2023-05-01T13:17:21;95710.13;;;17.38;57.25
33454;BME280;39400;49.744;7.012;2023-05-01T13:19:55;95712.28;;;16.92;55.44
33454;BME280;39400;49.744;7.012;2023-05-01T13:22:37;95711.53;;;16.92;56.69
33454;BME280;39400;49.744;7.012;2023-05-01T13:25:16;95703.31;;;16.72;56.05
33454;BME280;39400;49.744;7.012;2023-05-01T13:27:51;95711.06;;;16.80;56.55
33454;BME280;39400;49.744;7.012;2023-05-01T13:30:18;95711.44;;;17.21;56.44
33454;BME280;39400;49.744;7.012;2023-05-01T13:32:45;95712.13;;;17.50;56.14
33454;BME280;39400;49.744;7.012;2023-05-01T13:35:10;95706.66;;;17.98;57.34
33454;BME280;39400;49.744;7.012;2023-05-01T13:37:38;95709.66;;;17.91;56.83
33454;BME280;39400;49.744;7.012;2023-05-01T13:40:04;95697.97;;;18.09;55.78
33454;BME280;39400;49.744;7.012;2023-05-01T13:42:30;95705.94;;;18.19;55.07
33454;BME280;39400;49.744;7.012;2023-05-01T13:44:56;95705.63;;;18.04;55.16
33454;BME280;39400;49.744;7.012;2023-05-01T13:47:23;95703.16;;;18.19;55.33
33454;BME280;39400;49.744;7.012;2023-05-01T13:49:49;95705.22;;;17.93;56.15